sensor_id;sensor_type;location;lat;lon;timestamp;pressure;altitude;pressure_sealevel;temperature;humidity
72118;BME280;59992;47.490;8.736;2023-08-24T00:02:46;96741.67;;;20.38;79.02
72118;BME280;59992;47.490;8.736;2023-08-24T00:05:37;96745.58;;;20.36;80.32
72118;BME280;59992;47.490;8.736;2023-08-24T00:08:27;96739.90;;;20.32;82.93
72118;BME280;59992;47.490;8.736;2023-08-24T00:11:17;96733.31;;;20.31;82.36
72118;BME280;59992;47.490;8.736;2023-08-24T00:14:07;96728.52;;;20.28;81.32
72118;BME280;59992;47.490;8.736;2023-08-24T00:16:57;96730.05;;;20.25;80.20
72118;BME280;59992;47.490;8.736;2023-08-24T00:19:47;96731.36;;;20.22;82.93
72118;BME280;59992;47.490;8.736;2023-08-24T00:22:37;96728.52;;;20.19;83.50
72118;BME280;59992;47.490;8.736;2023-08-24T00:25:29;96727.08;;;20.16;80.79
72118;BME280;59992;47.490;8.736;2023-08-24T00:28:19;96731.05;;;20.14;80.03
72118;BME280;59992;47.490;8.736;2023-08-24T00:31:08;96734.33;;;20.11;82.25
72118;BME280;59992;47.490;8.736;2023-08-24T00:33:58;96737.23;;;20.08;83.90
72118;BME280;59992;47.490;8.736;2023-08-24T00:36:48;96731.89;;;20.07;82.14
72118;BME280;59992;47.490;8.736;2023-08-24T00:39:39;96734.92;;;20.05;81.77
72118;BME280;59992;47.490;8.736;2023-08-24T00:42:28;96733.34;;;20.01;82.57
72118;BME280;59992;47.490;8.736;2023-08-24T00:45:20;96726.17;;;19.97;81.93
72118;BME280;59992;47.490;8.736;2023-08-24T00:48:10;96724.41;;;19.94;81.08
72118;BME280;59992;47.490;8.736;2023-08-24T00:51:01;96721.75;;;19.93;82.54
72118;BME280;59992;47.490;8.736;2023-08-24T00:53:52;96725.83;;;19.89;83.66
72118;BME280;59992;47.490;8.736;2023-08-24T00:56:42;96725.96;;;19.86;83.83
72118;BME280;59992;47.490;8.736;2023-08-24T00:59:34;96727.64;;;19.83;83.40
72118;BME280;59992;47.490;8.736;2023-08-24T01:02:24;96723.64;;;19.79;84.43
72118;BME280;59992;47.490;8.736;2023-08-24T01:05:14;96723.20;;;19.75;83.75
72118;BME280;59992;47.490;8.736;2023-08-24T01:08:05;96718.35;;;19.71;82.36
72118;BME280;59992;47.490;8.736;2023-08-24T01:10:59;96715.89;;;19.67;82.32
72118;BME280;59992;47.490;8.736;2023-08-24T01:13:58;96717.90;;;19.62;82.21
72118;BME280;59992;47.490;8.736;2023-08-24T01:16:52;96718.73;;;19.59;83.16
72118;BME280;59992;47.490;8.736;2023-08-24T01:19:44;96713.55;;;19.57;84.15
72118;BME280;59992;47.490;8.736;2023-08-24T01:22:41;96711.33;;;19.54;84.62
72118;BME280;59992;47.490;8.736;2023-08-24T01:25:40;96712.06;;;19.51;84.01
72118;BME280;59992;47.490;8.736;2023-08-24T01:28:31;96712.83;;;19.47;84.13
72118;BME280;59992;47.490;8.736;2023-08-24T01:31:22;96708.95;;;19.42;85.54
72118;BME280;59992;47.490;8.736;2023-08-24T01:34:14;96708.11;;;19.37;84.91
72118;BME280;59992;47.490;8.736;2023-08-24T01:37:04;96700.30;;;19.32;85.65
72118;BME280;59992;47.490;8.736;2023-08-24T01:40:03;96696.64;;;19.30;86.59
72118;BME280;59992;47.490;8.736;2023-08-24T01:43:01;96698.22;;;19.27;87.00
72118;BME280;59992;47.490;8.736;2023-08-24T01:45:53;96698.80;;;19.24;86.61
72118;BME280;59992;47.490;8.736;2023-08-24T01:48:45;96699.91;;;19.22;87.12
72118;BME280;59992;47.490;8.736;2023-08-24T01:51:35;96696.30;;;19.22;86.68
72118;BME280;59992;47.490;8.736;2023-08-24T01:54:26;96690.08;;;19.19;86.11
72118;BME280;59992;47.490;8.736;2023-08-24T01:57:16;96682.23;;;19.16;86.93
72118;BME280;59992;47.490;8.736;2023-08-24T02:00:08;96675.74;;;19.13;85.74
72118;BME280;59992;47.490;8.736;2023-08-24T02:02:59;96661.84;;;19.10;85.03
72118;BME280;59992;47.490;8.736;2023-08-24T02:05:48;96659.11;;;19.08;87.27
72118;BME280;59992;47.490;8.736;2023-08-24T02:08:38;96654.42;;;19.05;87.59
72118;BME280;59992;47.490;8.736;2023-08-24T02:11:29;96649.52;;;19.03;86.31
72118;BME280;59992;47.490;8.736;2023-08-24T02:14:19;96651.12;;;19.00;88.45
72118;BME280;59992;47.490;8.736;2023-08-24T02:17:09;96650.13;;;19.00;87.33
72118;BME280;59992;47.490;8.736;2023-08-24T02:19:59;96653.46;;;18.98;87.02
72118;BME280;59992;47.490;8.736;2023-08-24T02:22:49;96658.17;;;18.96;89.21
72118;BME280;59992;47.490;8.736;2023-08-24T02:25:44;96660.72;;;18.96;87.32
72118;BME280;59992;47.490;8.736;2023-08-24T02:28:35;96654.15;;;18.95;87.63
72118;BME280;59992;47.490;8.736;2023-08-24T02:31:26;96646.30;;;18.91;87.99
72118;BME280;59992;47.490;8.736;2023-08-24T02:34:16;96640.59;;;18.88;92.17
72118;BME280;59992;47.490;8.736;2023-08-24T02:37:06;96634.92;;;18.88;92.32
72118;BME280;59992;47.490;8.736;2023-08-24T02:39:56;96633.76;;;18.89;88.98
72118;BME280;59992;47.490;8.736;2023-08-24T02:42:47;96633.69;;;18.88;87.61
72118;BME280;59992;47.490;8.736;2023-08-24T02:45:36;96633.46;;;18.87;89.03
72118;BME280;59992;47.490;8.736;2023-08-24T02:48:26;96632.49;;;18.86;87.41
72118;BME280;59992;47.490;8.736;2023-08-24T02:51:17;96631.58;;;18.86;88.85
72118;BME280;59992;47.490;8.736;2023-08-24T02:54:07;96623.86;;;18.84;89.23
72118;BME280;59992;47.490;8.736;2023-08-24T02:56:57;96626.38;;;18.80;89.29
72118;BME280;59992;47.490;8.736;2023-08-24T02:59:47;96627.42;;;18.78;88.30
72118;BME280;59992;47.490;8.736;2023-08-24T03:02:38;96625.54;;;18.77;88.51
72118;BME280;59992;47.490;8.736;2023-08-24T03:05:27;96621.27;;;18.75;89.65
72118;BME280;59992;47.490;8.736;2023-08-24T03:08:18;96613.98;;;18.70;90.25
72118;BME280;59992;47.490;8.736;2023-08-24T03:11:08;96613.05;;;18.67;90.74
72118;BME280;59992;47.490;8.736;2023-08-24T03:13:58;96612.55;;;18.64;87.76
72118;BME280;59992;47.490;8.736;2023-08-24T03:16:49;96613.98;;;18.62;90.02
72118;BME280;59992;47.490;8.736;2023-08-24T03:19:39;96610.84;;;18.57;90.43
72118;BME280;59992;47.490;8.736;2023-08-24T03:22:29;96610.98;;;18.54;90.78
72118;BME280;59992;47.490;8.736;2023-08-24T03:25:19;96612.63;;;18.52;90.80
72118;BME280;59992;47.490;8.736;2023-08-24T03:28:10;96614.60;;;18.49;91.18
72118;BME280;59992;47.490;8.736;2023-08-24T03:31:01;96622.23;;;18.47;90.90
72118;BME280;59992;47.490;8.736;2023-08-24T03:33:51;96627.48;;;18.45;89.54
72118;BME280;59992;47.490;8.736;2023-08-24T03:36:41;96628.95;;;18.44;89.30
72118;BME280;59992;47.490;8.736;2023-08-24T03:39:31;96629.50;;;18.41;92.29
72118;BME280;59992;47.490;8.736;2023-08-24T03:42:21;96624.52;;;18.37;91.06
72118;BME280;59992;47.490;8.736;2023-08-24T03:45:12;96625.98;;;18.37;91.71
72118;BME280;59992;47.490;8.736;2023-08-24T03:48:02;96625.44;;;18.36;92.87
72118;BME280;59992;47.490;8.736;2023-08-24T03:50:55;96623.02;;;18.34;90.05
72118;BME280;59992;47.490;8.736;2023-08-24T03:53:45;96623.88;;;18.34;90.55
72118;BME280;59992;47.490;8.736;2023-08-24T03:56:35;96625.88;;;18.33;89.97
72118;BME280;59992;47.490;8.736;2023-08-24T03:59:25;96622.61;;;18.31;91.20
72118;BME280;59992;47.490;8.736;2023-08-24T04:02:15;96612.21;;;18.20;93.22
72118;BME280;59992;47.490;8.736;2023-08-24T04:05:06;96623.17;;;18.25;93.32
72118;BME280;59992;47.490;8.736;2023-08-24T04:07:56;96618.94;;;18.22;92.29
72118;BME280;59992;47.490;8.736;2023-08-24T04:10:46;96622.52;;;18.23;91.59
72118;BME280;59992;47.490;8.736;2023-08-24T04:13:36;96622.88;;;18.20;90.72
72118;BME280;59992;47.490;8.736;2023-08-24T04:16:26;96618.75;;;18.18;90.40
72118;BME280;59992;47.490;8.736;2023-08-24T04:19:16;96619.58;;;18.15;91.41
72118;BME280;59992;47.490;8.736;2023-08-24T04:22:07;96615.52;;;18.15;92.62
72118;BME280;59992;47.490;8.736;2023-08-24T04:24:57;96609.65;;;18.13;93.49
72118;BME280;59992;47.490;8.736;2023-08-24T04:27:47;96605.77;;;18.11;91.14
72118;BME280;59992;47.490;8.736;2023-08-24T04:30:38;96603.91;;;18.08;92.27
72118;BME280;59992;47.490;8.736;2023-08-24T04:33:28;96603.02;;;18.06;91.87
72118;BME280;59992;47.490;8.736;2023-08-24T04:36:19;96605.32;;;18.05;92.73
72118;BME280;59992;47.490;8.736;2023-08-24T04:39:09;96608.77;;;18.04;93.31
72118;BME280;59992;47.490;8.736;2023-08-24T04:42:00;96609.40;;;18.04;93.04
72118;BME280;59992;47.490;8.736;2023-08-24T04:44:53;96609.94;;;18.04;91.27
72118;BME280;59992;47.490;8.736;2023-08-24T04:47:43;96609.61;;;18.05;90.57
72118;BME280;59992;47.490;8.736;2023-08-24T04:50:33;96613.48;;;18.08;92.40
72118;BME280;59992;47.490;8.736;2023-08-24T04:53:23;96615.98;;;18.10;93.61
72118;BME280;59992;47.490;8.736;2023-08-24T04:56:13;96621.77;;;18.16;93.65
72118;BME280;59992;47.490;8.736;2023-08-24T04:59:03;96621.90;;;18.23;92.22
72118;BME280;59992;47.490;8.736;2023-08-24T05:01:54;96619.82;;;18.28;92.37
72118;BME280;59992;47.490;8.736;2023-08-24T05:04:44;96622.54;;;18.36;92.95
72118;BME280;59992;47.490;8.736;2023-08-24T05:07:34;96619.69;;;18.47;93.04
72118;BME280;59992;47.490;8.736;2023-08-24T05:10:24;96617.66;;;18.62;91.74
72118;BME280;59992;47.490;8.736;2023-08-24T05:13:15;96617.08;;;18.81;93.04
72118;BME280;59992;47.490;8.736;2023-08-24T05:16:05;96618.52;;;19.02;92.13
72118;BME280;59992;47.490;8.736;2023-08-24T05:18:56;96623.41;;;19.27;90.16
72118;BME280;59992;47.490;8.736;2023-08-24T05:21:46;96619.98;;;19.53;89.53
72118;BME280;59992;47.490;8.736;2023-08-24T05:24:36;96614.77;;;19.77;88.10
72118;BME280;59992;47.490;8.736;2023-08-24T05:27:26;96616.98;;;19.99;86.92
72118;BME280;59992;47.490;8.736;2023-08-24T05:30:16;96615.83;;;20.19;85.61
72118;BME280;59992;47.490;8.736;2023-08-24T05:33:06;96619.73;;;20.41;85.15
72118;BME280;59992;47.490;8.736;2023-08-24T05:35:57;96619.10;;;20.60;84.68
72118;BME280;59992;47.490;8.736;2023-08-24T05:38:47;96615.45;;;20.77;83.60
72118;BME280;59992;47.490;8.736;2023-08-24T05:41:38;96615.09;;;20.87;82.78
72118;BME280;59992;47.490;8.736;2023-08-24T05:44:28;96611.14;;;20.97;82.31
72118;BME280;59992;47.490;8.736;2023-08-24T05:47:18;96612.19;;;21.05;81.81
72118;BME280;59992;47.490;8.736;2023-08-24T05:50:09;96611.47;;;21.11;81.07
72118;BME280;59992;47.490;8.736;2023-08-24T05:53:00;96614.77;;;21.14;80.50
72118;BME280;59992;47.490;8.736;2023-08-24T05:55:50;96621.56;;;21.19;79.98
72118;BME280;59992;47.490;8.736;2023-08-24T05:58:41;96622.73;;;21.24;80.21
72118;BME280;59992;47.490;8.736;2023-08-24T06:01:31;96619.41;;;21.30;80.11
72118;BME280;59992;47.490;8.736;2023-08-24T06:04:21;96617.60;;;21.33;79.86
72118;BME280;59992;47.490;8.736;2023-08-24T06:07:11;96619.20;;;21.34;79.41
72118;BME280;59992;47.490;8.736;2023-08-24T06:10:01;96621.17;;;21.41;79.60
72118;BME280;59992;47.490;8.736;2023-08-24T06:12:52;96620.40;;;21.49;79.39
72118;BME280;59992;47.490;8.736;2023-08-24T06:15:43;96620.11;;;21.59;79.06
72118;BME280;59992;47.490;8.736;2023-08-24T06:18:33;96615.63;;;21.70;78.82
72118;BME280;59992;47.490;8.736;2023-08-24T06:21:24;96613.06;;;21.81;78.58
72118;BME280;59992;47.490;8.736;2023-08-24T06:24:14;96608.05;;;22.04;77.87
72118;BME280;59992;47.490;8.736;2023-08-24T06:27:05;96606.07;;;22.39;77.92
72118;BME280;59992;47.490;8.736;2023-08-24T06:29:55;96609.92;;;22.63;75.77
72118;BME280;59992;47.490;8.736;2023-08-24T06:32:45;96610.10;;;22.80;75.26
72118;BME280;59992;47.490;8.736;2023-08-24T06:35:35;96606.11;;;23.14;75.59
72118;BME280;59992;47.490;8.736;2023-08-24T06:38:26;96603.04;;;23.61;72.11
72118;BME280;59992;47.490;8.736;2023-08-24T06:41:19;96602.52;;;24.08;69.39
72118;BME280;59992;47.490;8.736;2023-08-24T06:44:09;96606.85;;;24.47;68.61
72118;BME280;59992;47.490;8.736;2023-08-24T06:46:59;96614.73;;;24.81;66.05
72118;BME280;59992;47.490;8.736;2023-08-24T06:49:50;96623.59;;;25.25;64.38
72118;BME280;59992;47.490;8.736;2023-08-24T06:52:40;96631.45;;;25.71;63.52
72118;BME280;59992;47.490;8.736;2023-08-24T06:55:30;96633.75;;;26.22;63.38
72118;BME280;59992;47.490;8.736;2023-08-24T06:58:20;96632.88;;;26.54;60.41
72118;BME280;59992;47.490;8.736;2023-08-24T07:01:10;96633.38;;;27.10;59.16
72118;BME280;59992;47.490;8.736;2023-08-24T07:04:00;96636.48;;;27.69;58.52
72118;BME280;59992;47.490;8.736;2023-08-24T07:06:51;96630.88;;;28.15;55.23
72118;BME280;59992;47.490;8.736;2023-08-24T07:09:42;96628.77;;;28.65;53.65
72118;BME280;59992;47.490;8.736;2023-08-24T07:12:32;96630.06;;;29.08;53.47
72118;BME280;59992;47.490;8.736;2023-08-24T07:15:22;96627.72;;;29.31;50.52
72118;BME280;59992;47.490;8.736;2023-08-24T07:18:12;96628.93;;;29.66;50.93
72118;BME280;59992;47.490;8.736;2023-08-24T07:21:03;96625.61;;;29.84;49.86
72118;BME280;59992;47.490;8.736;2023-08-24T07:23:53;96623.09;;;29.64;50.32
72118;BME280;59992;47.490;8.736;2023-08-24T07:26:43;96617.57;;;29.34;50.66
72118;BME280;59992;47.490;8.736;2023-08-24T07:29:34;96618.97;;;29.52;51.31
72118;BME280;59992;47.490;8.736;2023-08-24T07:32:24;96608.12;;;29.66;49.00
72118;BME280;59992;47.490;8.736;2023-08-24T07:35:14;96606.72;;;30.04;49.43
72118;BME280;59992;47.490;8.736;2023-08-24T07:38:05;96595.39;;;30.46;48.25
72118;BME280;59992;47.490;8.736;2023-08-24T07:40:55;96596.38;;;30.77;47.49
72118;BME280;59992;47.490;8.736;2023-08-24T07:43:45;96595.16;;;31.19;48.38
72118;BME280;59992;47.490;8.736;2023-08-24T07:46:35;96596.80;;;31.45;45.39
72118;BME280;59992;47.490;8.736;2023-08-24T07:49:25;96600.70;;;31.72;46.15
72118;BME280;59992;47.490;8.736;2023-08-24T07:52:16;96597.85;;;31.90;46.66
72118;BME280;59992;47.490;8.736;2023-08-24T07:55:07;96599.45;;;32.05;43.71
72118;BME280;59992;47.490;8.736;2023-08-24T07:57:58;96592.33;;;32.26;43.59
72118;BME280;59992;47.490;8.736;2023-08-24T08:00:50;96593.09;;;32.33;42.36
72118;BME280;59992;47.490;8.736;2023-08-24T08:03:41;96593.73;;;32.62;44.26
72118;BME280;59992;47.490;8.736;2023-08-24T08:06:31;96592.80;;;32.78;42.09
72118;BME280;59992;47.490;8.736;2023-08-24T08:09:21;96592.35;;;32.88;42.65
72118;BME280;59992;47.490;8.736;2023-08-24T08:12:11;96594.20;;;33.18;42.85
72118;BME280;59992;47.490;8.736;2023-08-24T08:15:01;96580.58;;;33.40;41.38
72118;BME280;59992;47.490;8.736;2023-08-24T08:17:52;96580.30;;;33.42;41.98
72118;BME280;59992;47.490;8.736;2023-08-24T08:20:42;96575.23;;;33.46;41.36
72118;BME280;59992;47.490;8.736;2023-08-24T08:23:35;96572.41;;;33.62;41.76
72118;BME280;59992;47.490;8.736;2023-08-24T08:26:25;96570.61;;;33.51;41.33
72118;BME280;59992;47.490;8.736;2023-08-24T08:29:16;96570.13;;;33.40;40.94
72118;BME280;59992;47.490;8.736;2023-08-24T08:32:06;96570.11;;;33.27;41.38
72118;BME280;59992;47.490;8.736;2023-08-24T08:34:56;96568.71;;;33.29;41.43
72118;BME280;59992;47.490;8.736;2023-08-24T08:37:48;96576.77;;;33.11;41.43
72118;BME280;59992;47.490;8.736;2023-08-24T08:40:41;96580.70;;;33.35;41.84
72118;BME280;59992;47.490;8.736;2023-08-24T08:43:31;96582.08;;;33.56;41.40
72118;BME280;59992;47.490;8.736;2023-08-24T08:46:22;96586.55;;;33.57;40.71
72118;BME280;59992;47.490;8.736;2023-08-24T08:49:13;96585.98;;;33.52;39.96
72118;BME280;59992;47.490;8.736;2023-08-24T08:52:05;96587.98;;;33.38;40.80
72118;BME280;59992;47.490;8.736;2023-08-24T08:54:55;96581.95;;;33.35;40.35
72118;BME280;59992;47.490;8.736;2023-08-24T08:57:45;96585.56;;;33.48;40.63
72118;BME280;59992;47.490;8.736;2023-08-24T09:00:36;96586.13;;;33.61;40.72
72118;BME280;59992;47.490;8.736;2023-08-24T09:03:27;96589.19;;;33.65;40.09
72118;BME280;59992;47.490;8.736;2023-08-24T09:06:19;96582.23;;;33.68;40.20
72118;BME280;59992;47.490;8.736;2023-08-24T09:09:09;96578.47;;;33.68;39.94
72118;BME280;59992;47.490;8.736;2023-08-24T09:12:00;96574.42;;;33.61;39.51
72118;BME280;59992;47.490;8.736;2023-08-24T09:14:50;96571.55;;;33.52;39.64
72118;BME280;59992;47.490;8.736;2023-08-24T09:17:44;96566.77;;;33.67;40.56
72118;BME280;59992;47.490;8.736;2023-08-24T09:20:38;96562.92;;;33.88;39.84
72118;BME280;59992;47.490;8.736;2023-08-24T09:23:29;96558.33;;;33.89;39.20
72118;BME280;59992;47.490;8.736;2023-08-24T09:26:28;96560.36;;;33.86;39.93
72118;BME280;59992;47.490;8.736;2023-08-24T09:29:19;96553.61;;;33.74;39.20
72118;BME280;59992;47.490;8.736;2023-08-24T09:32:10;96553.46;;;33.74;39.13
72118;BME280;59992;47.490;8.736;2023-08-24T09:35:06;96548.55;;;33.44;39.09
72118;BME280;59992;47.490;8.736;2023-08-24T09:37:58;96541.87;;;33.42;39.42
72118;BME280;59992;47.490;8.736;2023-08-24T09:40:51;96541.23;;;33.21;40.32
72118;BME280;59992;47.490;8.736;2023-08-24T09:43:42;96543.04;;;33.26;40.49
72118;BME280;59992;47.490;8.736;2023-08-24T09:46:32;96541.41;;;33.23;40.93
72118;BME280;59992;47.490;8.736;2023-08-24T09:49:22;96532.05;;;33.19;40.08
72118;BME280;59992;47.490;8.736;2023-08-24T09:52:15;96532.13;;;33.17;40.30
72118;BME280;59992;47.490;8.736;2023-08-24T09:55:09;96530.34;;;33.06;40.60
72118;BME280;59992;47.490;8.736;2023-08-24T09:58:02;96527.45;;;32.83;39.85
72118;BME280;59992;47.490;8.736;2023-08-24T10:00:54;96520.80;;;32.84;40.30
72118;BME280;59992;47.490;8.736;2023-08-24T10:03:46;96518.46;;;32.84;40.56
72118;BME280;59992;47.490;8.736;2023-08-24T10:06:38;96518.96;;;32.58;40.36
72118;BME280;59992;47.490;8.736;2023-08-24T10:09:31;96513.78;;;32.57;40.73
72118;BME280;59992;47.490;8.736;2023-08-24T10:12:24;96507.24;;;32.41;40.95
72118;BME280;59992;47.490;8.736;2023-08-24T10:15:18;96505.23;;;32.33;42.81
72118;BME280;59992;47.490;8.736;2023-08-24T10:18:11;96496.33;;;32.44;42.34
72118;BME280;59992;47.490;8.736;2023-08-24T10:21:01;96491.79;;;32.52;42.26
72118;BME280;59992;47.490;8.736;2023-08-24T10:23:53;96487.70;;;32.60;41.83
72118;BME280;59992;47.490;8.736;2023-08-24T10:26:45;96482.91;;;32.60;42.79
72118;BME280;59992;47.490;8.736;2023-08-24T10:29:36;96478.83;;;32.68;42.48
72118;BME280;59992;47.490;8.736;2023-08-24T10:32:27;96478.70;;;32.66;41.70
72118;BME280;59992;47.490;8.736;2023-08-24T10:35:17;96473.88;;;32.69;40.44
72118;BME280;59992;47.490;8.736;2023-08-24T10:38:07;96469.59;;;32.76;41.42
72118;BME280;59992;47.490;8.736;2023-08-24T10:41:03;96475.45;;;32.80;41.71
72118;BME280;59992;47.490;8.736;2023-08-24T10:44:03;96466.56;;;32.80;41.73
72118;BME280;59992;47.490;8.736;2023-08-24T10:47:12;96464.46;;;32.80;41.44
72118;BME280;59992;47.490;8.736;2023-08-24T10:50:03;96455.45;;;32.64;40.79
72118;BME280;59992;47.490;8.736;2023-08-24T10:52:53;96452.52;;;32.72;41.58
72118;BME280;59992;47.490;8.736;2023-08-24T10:55:43;96441.65;;;32.64;40.77
72118;BME280;59992;47.490;8.736;2023-08-24T10:58:36;96437.52;;;32.64;40.56
72118;BME280;59992;47.490;8.736;2023-08-24T11:01:26;96434.89;;;32.62;40.80
72118;BME280;59992;47.490;8.736;2023-08-24T11:04:17;96436.21;;;32.65;40.35
72118;BME280;59992;47.490;8.736;2023-08-24T11:07:17;96430.26;;;32.67;40.66
72118;BME280;59992;47.490;8.736;2023-08-24T11:10:14;96430.86;;;32.72;40.92
72118;BME280;59992;47.490;8.736;2023-08-24T11:13:12;96428.28;;;32.71;42.41
72118;BME280;59992;47.490;8.736;2023-08-24T11:16:03;96425.44;;;32.77;40.96
72118;BME280;59992;47.490;8.736;2023-08-24T11:18:58;96422.78;;;32.85;40.40
72118;BME280;59992;47.490;8.736;2023-08-24T11:21:48;96417.77;;;32.94;40.50
72118;BME280;59992;47.490;8.736;2023-08-24T11:24:39;96410.98;;;32.95;39.46
72118;BME280;59992;47.490;8.736;2023-08-24T11:27:30;96413.28;;;32.95;39.55
72118;BME280;59992;47.490;8.736;2023-08-24T11:30:20;96409.66;;;32.99;39.72
72118;BME280;59992;47.490;8.736;2023-08-24T11:33:11;96412.56;;;32.99;38.10
72118;BME280;59992;47.490;8.736;2023-08-24T11:36:02;96411.02;;;32.94;38.36
72118;BME280;59992;47.490;8.736;2023-08-24T11:38:56;96403.92;;;32.98;37.57
72118;BME280;59992;47.490;8.736;2023-08-24T11:41:46;96400.39;;;33.03;38.90
72118;BME280;59992;47.490;8.736;2023-08-24T11:44:49;96398.74;;;33.09;38.66
72118;BME280;59992;47.490;8.736;2023-08-24T11:47:40;96399.52;;;33.07;38.71
72118;BME280;59992;47.490;8.736;2023-08-24T11:50:31;96394.35;;;33.09;38.31
72118;BME280;59992;47.490;8.736;2023-08-24T11:53:23;96396.01;;;33.09;38.65
72118;BME280;59992;47.490;8.736;2023-08-24T11:56:14;96392.20;;;33.15;39.51
72118;BME280;59992;47.490;8.736;2023-08-24T11:59:05;96389.67;;;33.23;39.58
72118;BME280;59992;47.490;8.736;2023-08-24T12:01:55;96388.01;;;33.29;38.87
72118;BME280;59992;47.490;8.736;2023-08-24T12:04:49;96387.15;;;33.35;38.30
72118;BME280;59992;47.490;8.736;2023-08-24T12:07:39;96383.85;;;33.39;38.35
72118;BME280;59992;47.490;8.736;2023-08-24T12:10:30;96380.88;;;33.41;38.23
72118;BME280;59992;47.490;8.736;2023-08-24T12:13:20;96379.26;;;33.52;38.64
72118;BME280;59992;47.490;8.736;2023-08-24T12:16:11;96371.54;;;33.65;38.63
72118;BME280;59992;47.490;8.736;2023-08-24T12:19:02;96371.34;;;33.62;37.68
72118;BME280;59992;47.490;8.736;2023-08-24T12:21:52;96374.60;;;33.78;38.61
72118;BME280;59992;47.490;8.736;2023-08-24T12:24:46;96375.49;;;33.86;36.79
72118;BME280;59992;47.490;8.736;2023-08-24T12:27:36;96367.08;;;33.95;37.49
72118;BME280;59992;47.490;8.736;2023-08-24T12:30:26;96360.47;;;34.05;36.17
72118;BME280;59992;47.490;8.736;2023-08-24T12:33:26;96363.61;;;34.16;37.30
72118;BME280;59992;47.490;8.736;2023-08-24T12:36:17;96360.80;;;34.20;36.86
72118;BME280;59992;47.490;8.736;2023-08-24T12:39:07;96354.74;;;34.28;35.94
72118;BME280;59992;47.490;8.736;2023-08-24T12:41:59;96348.41;;;34.33;35.52
72118;BME280;59992;47.490;8.736;2023-08-24T12:44:49;96344.13;;;34.38;35.39
72118;BME280;59992;47.490;8.736;2023-08-24T12:47:39;96338.06;;;34.42;35.11
72118;BME280;59992;47.490;8.736;2023-08-24T12:50:29;96332.08;;;34.37;34.53
72118;BME280;59992;47.490;8.736;2023-08-24T12:53:19;96324.50;;;34.38;34.19
72118;BME280;59992;47.490;8.736;2023-08-24T12:56:09;96320.09;;;34.46;35.65
72118;BME280;59992;47.490;8.736;2023-08-24T12:58:59;96316.58;;;34.44;34.23
72118;BME280;59992;47.490;8.736;2023-08-24T13:01:49;96303.35;;;34.40;32.66
72118;BME280;59992;47.490;8.736;2023-08-24T13:04:39;96298.38;;;34.44;33.04
72118;BME280;59992;47.490;8.736;2023-08-24T13:07:29;96295.36;;;34.46;33.08
72118;BME280;59992;47.490;8.736;2023-08-24T13:10:20;96291.92;;;34.44;32.66
72118;BME280;59992;47.490;8.736;2023-08-24T13:13:10;96287.58;;;34.43;33.48
72118;BME280;59992;47.490;8.736;2023-08-24T13:16:01;96285.70;;;34.47;33.29
72118;BME280;59992;47.490;8.736;2023-08-24T13:18:51;96284.24;;;34.53;32.80
72118;BME280;59992;47.490;8.736;2023-08-24T13:21:41;96278.45;;;34.54;31.84
72118;BME280;59992;47.490;8.736;2023-08-24T13:24:31;96269.73;;;34.59;31.45
72118;BME280;59992;47.490;8.736;2023-08-24T13:27:21;96268.63;;;34.68;32.71
72118;BME280;59992;47.490;8.736;2023-08-24T13:30:12;96259.52;;;34.73;32.52
72118;BME280;59992;47.490;8.736;2023-08-24T13:33:02;96249.92;;;34.77;32.15
72118;BME280;59992;47.490;8.736;2023-08-24T13:35:53;96240.54;;;34.81;33.43
72118;BME280;59992;47.490;8.736;2023-08-24T13:38:44;96240.72;;;34.85;35.06
72118;BME280;59992;47.490;8.736;2023-08-24T13:41:34;96234.86;;;34.90;35.01
72118;BME280;59992;47.490;8.736;2023-08-24T13:44:24;96235.77;;;34.95;35.20
72118;BME280;59992;47.490;8.736;2023-08-24T13:47:15;96237.16;;;34.99;35.56
72118;BME280;59992;47.490;8.736;2023-08-24T13:50:07;96230.05;;;34.88;31.71
72118;BME280;59992;47.490;8.736;2023-08-24T13:52:58;96224.23;;;34.88;31.74
72118;BME280;59992;47.490;8.736;2023-08-24T13:55:48;96220.68;;;34.90;32.54
72118;BME280;59992;47.490;8.736;2023-08-24T13:58:40;96215.44;;;34.95;33.18
72118;BME280;59992;47.490;8.736;2023-08-24T14:01:30;96213.48;;;34.98;35.06
72118;BME280;59992;47.490;8.736;2023-08-24T14:04:20;96208.58;;;34.97;34.15
72118;BME280;59992;47.490;8.736;2023-08-24T14:07:10;96200.31;;;35.03;32.51
72118;BME280;59992;47.490;8.736;2023-08-24T14:10:00;96200.67;;;35.10;33.88
72118;BME280;59992;47.490;8.736;2023-08-24T14:12:50;96192.13;;;35.14;33.97
72118;BME280;59992;47.490;8.736;2023-08-24T14:15:40;96192.83;;;35.14;33.54
72118;BME280;59992;47.490;8.736;2023-08-24T14:18:30;96189.94;;;35.20;33.49
72118;BME280;59992;47.490;8.736;2023-08-24T14:21:21;96190.29;;;35.18;32.78
72118;BME280;59992;47.490;8.736;2023-08-24T14:24:12;96191.12;;;35.16;34.24
72118;BME280;59992;47.490;8.736;2023-08-24T14:27:02;96183.23;;;35.17;32.35
72118;BME280;59992;47.490;8.736;2023-08-24T14:29:52;96182.82;;;35.20;33.85
72118;BME280;59992;47.490;8.736;2023-08-24T14:32:43;96174.27;;;35.21;35.33
72118;BME280;59992;47.490;8.736;2023-08-24T14:35:33;96161.69;;;35.25;35.25
72118;BME280;59992;47.490;8.736;2023-08-24T14:38:23;96154.64;;;35.23;36.36
72118;BME280;59992;47.490;8.736;2023-08-24T14:41:14;96151.95;;;35.17;34.76
72118;BME280;59992;47.490;8.736;2023-08-24T14:44:04;96151.85;;;35.20;35.63
72118;BME280;59992;47.490;8.736;2023-08-24T14:46:54;96145.32;;;35.18;35.37
72118;BME280;59992;47.490;8.736;2023-08-24T14:49:44;96144.48;;;35.11;34.57
72118;BME280;59992;47.490;8.736;2023-08-24T14:52:35;96140.85;;;34.97;35.30
72118;BME280;59992;47.490;8.736;2023-08-24T14:55:27;96142.09;;;34.98;34.59
72118;BME280;59992;47.490;8.736;2023-08-24T14:58:17;96144.79;;;35.01;35.00
72118;BME280;59992;47.490;8.736;2023-08-24T15:01:08;96141.97;;;34.99;37.53
72118;BME280;59992;47.490;8.736;2023-08-24T15:03:58;96142.48;;;34.98;38.23
72118;BME280;59992;47.490;8.736;2023-08-24T15:06:48;96134.97;;;34.92;36.76